Time;durP1;ratioP1;P1;durP2;ratioP2;P2;SDS_P1;SDS_P2;PMS_P1;PMS_P2;Temp;Humidity;BMP_temperature;BMP_pressure;BME280_temperature;BME280_humidity;BME280_pressure;Samples;Min_cycle;Max_cycle;Signal;HPM_P1;HPM_P2
2021/07/08 00:01:51;;;;;;;0.35;0.35;;;;;;;16.53;85.53;96788.28;5076311;28;20036;-74
2021/07/08 00:04:17;;;;;;;1.65;0.70;;;;;;;16.53;85.69;96788.28;5075903;28;20377;-74
2021/07/08 00:06:43;;;;;;;0.55;0.40;;;;;;;16.52;85.65;96776.84;5075887;28;20049;-73
2021/07/08 00:09:10;;;;;;;0.55;0.50;;;;;;;16.51;85.70;96772.63;5075272;28;20041;-74
2021/07/08 00:11:37;;;;;;;1.55;0.43;;;;;;;16.50;85.84;96776.31;5075482;28;20036;-74
2021/07/08 00:14:04;;;;;;;1.55;0.40;;;;;;;16.49;85.97;96780.00;5075253;28;20048;-74
2021/07/08 00:16:31;;;;;;;0.45;0.40;;;;;;;16.49;86.18;96776.56;5075585;28;20381;-74
2021/07/08 00:18:58;;;;;;;0.40;0.38;;;;;;;16.47;86.33;96782.09;5075671;28;20036;-74
2021/07/08 00:21:25;;;;;;;0.85;0.50;;;;;;;16.47;86.46;96781.31;5075438;28;20040;-74
2021/07/08 00:23:52;;;;;;;0.88;0.47;;;;;;;16.47;86.55;96789.25;5075232;28;20052;-74
2021/07/08 00:26:19;;;;;;;1.38;0.50;;;;;;;16.47;86.93;96784.75;5074944;28;20484;-74
2021/07/08 00:28:45;;;;;;;0.35;0.35;;;;;;;16.45;86.91;96778.91;5075559;28;20052;-74
2021/07/08 00:31:11;;;;;;;1.63;1.10;;;;;;;16.44;86.87;96756.09;5075320;28;20040;-75
2021/07/08 00:33:38;;;;;;;0.43;0.43;;;;;;;16.44;87.14;96753.47;5075550;28;20461;-75
2021/07/08 00:36:04;;;;;;;0.73;0.50;;;;;;;16.44;87.21;96753.47;5074017;28;20507;-75
2021/07/08 00:38:31;;;;;;;0.77;0.57;;;;;;;16.44;87.28;96758.75;5075374;28;20025;-75
2021/07/08 00:40:57;;;;;;;0.60;0.60;;;;;;;16.44;87.48;96761.41;5075144;28;20037;-74
2021/07/08 00:43:28;;;;;;;0.60;0.60;;;;;;;16.46;87.68;96764.59;5075530;28;20041;-73
2021/07/08 00:45:54;;;;;;;0.50;0.47;;;;;;;16.46;87.81;96761.97;5074784;28;20088;-74
2021/07/08 00:48:20;;;;;;;0.43;0.43;;;;;;;16.47;87.89;96752.97;5075069;28;20048;-73
2021/07/08 00:50:47;;;;;;;0.50;0.50;;;;;;;16.46;88.06;96743.44;5074727;28;20400;-74
2021/07/08 00:53:15;;;;;;;0.32;0.32;;;;;;;16.44;88.05;96735.75;5074792;28;20029;-74
2021/07/08 00:55:45;;;;;;;0.93;0.60;;;;;;;16.41;88.35;96728.28;5075005;28;20476;-74
2021/07/08 00:58:14;;;;;;;0.70;0.70;;;;;;;16.42;88.64;96721.16;5074962;28;20045;-74
2021/07/08 01:00:49;;;;;;;0.70;0.70;;;;;;;16.42;88.55;96711.38;5073487;28;20067;-73
2021/07/08 01:03:16;;;;;;;0.40;0.40;;;;;;;16.42;88.70;96702.63;5074855;28;20033;-74
2021/07/08 01:05:49;;;;;;;0.57;0.45;;;;;;;16.42;89.14;96714.03;5074725;28;20392;-74
2021/07/08 01:08:15;;;;;;;0.93;0.70;;;;;;;16.41;88.84;96716.91;5074851;28;20033;-74
2021/07/08 01:10:43;;;;;;;0.50;0.50;;;;;;;16.40;88.99;96726.72;5074636;28;20381;-74
2021/07/08 01:13:11;;;;;;;0.50;0.50;;;;;;;16.40;89.05;96725.91;5074131;28;20047;-74
2021/07/08 01:15:37;;;;;;;0.60;0.60;;;;;;;16.38;89.13;96733.31;5074255;28;20024;-74
2021/07/08 01:18:04;;;;;;;2.78;0.50;;;;;;;16.37;89.21;96740.41;5074418;28;20461;-74
2021/07/08 01:20:32;;;;;;;1.02;0.70;;;;;;;16.36;89.35;96748.63;5074192;28;20037;-74
2021/07/08 01:22:58;;;;;;;1.40;0.90;;;;;;;16.30;89.52;96753.06;5074682;28;20384;-74
2021/07/08 01:25:45;;;;;;;1.92;0.77;;;;;;;16.22;90.17;96756.13;5073648;28;20048;-73
2021/07/08 01:28:11;;;;;;;1.92;0.90;;;;;;;16.15;89.54;96758.97;5073987;28;20049;-73
2021/07/08 01:30:38;;;;;;;1.00;0.75;;;;;;;16.11;89.98;96767.66;5074055;28;20048;-75
2021/07/08 01:33:06;;;;;;;0.85;0.70;;;;;;;16.05;90.10;96768.63;5073342;28;20398;-73
2021/07/08 01:35:32;;;;;;;0.90;0.60;;;;;;;16.01;90.40;96760.38;5072451;28;20036;-73
2021/07/08 01:37:58;;;;;;;0.50;0.50;;;;;;;16.01;90.70;96763.00;5073983;28;20036;-75
2021/07/08 01:40:24;;;;;;;1.05;0.60;;;;;;;16.01;90.75;96760.38;5074162;28;20055;-73
2021/07/08 01:42:51;;;;;;;0.88;0.60;;;;;;;16.02;90.89;96760.13;5073562;28;20049;-74
2021/07/08 01:45:17;;;;;;;1.77;0.73;;;;;;;16.06;91.14;96764.91;5073174;28;20049;-73
2021/07/08 01:47:45;;;;;;;1.67;0.68;;;;;;;16.05;90.84;96755.38;5073769;28;20055;-73
2021/07/08 01:50:17;;;;;;;2.55;0.60;;;;;;;16.04;91.28;96757.22;5073825;28;20489;-74
2021/07/08 01:52:44;;;;;;;0.65;0.65;;;;;;;16.06;91.28;96749.03;5073298;28;20040;-73
2021/07/08 01:55:11;;;;;;;1.55;1.23;;;;;;;16.03;91.22;96748.47;5071941;28;20046;-74
2021/07/08 01:57:51;;;;;;;0.80;0.60;;;;;;;16.03;91.70;96735.25;5073729;28;20374;-73
2021/07/08 02:00:19;;;;;;;0.50;0.50;;;;;;;16.06;91.57;96730.53;5074025;28;20036;-73
2021/07/08 02:02:45;;;;;;;2.80;0.80;;;;;;;16.07;91.62;96722.34;5073207;28;20044;-74
2021/07/08 02:08:53;;;;;;;1.75;0.50;;;;;;;16.10;91.51;96721.06;5067794;28;20377;-73
2021/07/08 02:11:31;;;;;;;0.57;0.57;;;;;;;16.10;91.60;96719.19;5073850;28;20024;-73
2021/07/08 02:13:57;;;;;;;1.67;0.40;;;;;;;16.09;91.53;96714.97;5073527;28;20052;-73
2021/07/08 02:16:23;;;;;;;1.15;0.80;;;;;;;16.09;91.45;96709.69;5072712;28;20045;-73
2021/07/08 02:18:51;;;;;;;1.33;0.60;;;;;;;16.07;91.46;96701.19;5073327;28;20037;-74
2021/07/08 02:21:18;;;;;;;1.15;0.60;;;;;;;16.07;91.55;96705.69;5073066;28;20071;-74
2021/07/08 02:23:44;;;;;;;0.35;0.30;;;;;;;16.03;91.58;96711.44;5072040;28;20052;-73
2021/07/08 02:26:11;;;;;;;0.40;0.30;;;;;;;15.99;91.46;96714.84;5072852;28;20048;-73
2021/07/08 02:28:38;;;;;;;0.43;0.40;;;;;;;15.95;91.55;96722.44;5072797;28;20052;-74
2021/07/08 02:31:05;;;;;;;0.52;0.43;;;;;;;15.94;91.90;96730.66;5073247;28;20043;-74
2021/07/08 02:33:32;;;;;;;1.27;0.57;;;;;;;15.95;92.24;96727.75;5072391;28;20040;-74
2021/07/08 02:35:59;;;;;;;1.27;0.63;;;;;;;15.99;92.25;96726.22;5073706;28;20035;-74
2021/07/08 02:38:25;;;;;;;0.88;0.47;;;;;;;16.01;92.35;96720.69;5073129;28;20039;-74
2021/07/08 02:40:51;;;;;;;0.40;0.40;;;;;;;15.99;92.15;96720.91;5073631;28;20465;-74
2021/07/08 02:43:17;;;;;;;0.70;0.70;;;;;;;16.00;92.25;96732.28;5073155;28;20086;-74
2021/07/08 02:45:44;;;;;;;1.17;0.45;;;;;;;15.99;92.33;96746.56;5072550;28;20059;-74
2021/07/08 02:48:14;;;;;;;0.50;0.50;;;;;;;16.00;92.33;96751.63;5073515;28;20048;-74
2021/07/08 02:50:41;;;;;;;1.73;0.80;;;;;;;15.99;92.28;96754.50;5072517;28;20123;-74
2021/07/08 02:53:09;;;;;;;1.25;0.65;;;;;;;15.95;92.26;96750.75;5073056;28;20032;-74
2021/07/08 02:55:37;;;;;;;1.27;0.57;;;;;;;15.94;92.45;96744.66;5073378;28;20028;-73
2021/07/08 02:58:03;;;;;;;1.75;0.73;;;;;;;15.95;92.63;96742.81;5073715;28;20041;-74
2021/07/08 03:00:30;;;;;;;1.60;0.70;;;;;;;15.95;92.83;96750.75;5076858;28;20036;-74
2021/07/08 03:02:57;;;;;;;0.88;0.75;;;;;;;15.95;92.87;96761.34;5077061;28;20043;-74
2021/07/08 03:05:23;;;;;;;1.58;0.98;;;;;;;15.96;92.90;96755.81;5076541;28;20045;-74
2021/07/08 03:07:50;;;;;;;2.15;0.90;;;;;;;15.94;92.94;96741.25;5077353;28;20043;-74
2021/07/08 03:10:19;;;;;;;4.95;1.00;;;;;;;15.94;92.97;96744.66;5076889;28;20047;-74
2021/07/08 03:12:45;;;;;;;2.85;0.82;;;;;;;15.95;93.09;96754.19;5076921;28;20063;-75
2021/07/08 03:15:13;;;;;;;0.77;0.77;;;;;;;15.95;92.98;96750.75;5076604;28;20032;-75
2021/07/08 03:17:40;;;;;;;0.60;0.60;;;;;;;15.95;92.79;96742.81;5075901;28;20417;-75
2021/07/08 03:20:12;;;;;;;2.42;1.30;;;;;;;15.94;92.87;96749.16;5076395;28;20052;-74
2021/07/08 03:22:40;;;;;;;1.30;0.70;;;;;;;15.94;92.91;96760.53;5076854;28;20035;-73
2021/07/08 03:25:08;;;;;;;1.33;0.80;;;;;;;15.93;93.19;96748.34;5076030;28;20037;-75
2021/07/08 03:27:34;;;;;;;1.20;0.95;;;;;;;15.87;92.95;96743.25;5076466;28;20037;-74
2021/07/08 03:30:01;;;;;;;0.60;0.60;;;;;;;15.83;93.04;96742.91;5077302;28;20036;-75
2021/07/08 03:32:28;;;;;;;1.35;0.80;;;;;;;15.82;93.21;96749.25;5076443;28;20040;-74
2021/07/08 03:34:54;;;;;;;1.42;0.82;;;;;;;15.81;93.46;96745.81;5076408;28;20025;-74
2021/07/08 03:37:20;;;;;;;1.75;0.85;;;;;;;15.82;93.48;96754.56;5076273;28;20036;-75
2021/07/08 03:39:46;;;;;;;1.80;0.85;;;;;;;15.82;93.39;96760.63;5076323;28;20377;-76
2021/07/08 03:42:12;;;;;;;0.60;0.60;;;;;;;15.83;93.54;96761.44;5076204;28;20036;-74
2021/07/08 03:44:38;;;;;;;2.45;1.27;;;;;;;15.86;93.44;96762.81;5076557;28;20036;-74
2021/07/08 03:47:04;;;;;;;1.00;0.70;;;;;;;15.86;93.43;96760.16;5075612;28;20497;-74
2021/07/08 03:49:30;;;;;;;0.70;0.70;;;;;;;15.86;93.49;96757.53;5076200;28;20045;-74
2021/07/08 03:51:57;;;;;;;1.77;0.60;;;;;;;15.86;93.40;96755.66;5076234;28;20036;-75
2021/07/08 03:54:23;;;;;;;1.15;0.80;;;;;;;15.88;93.47;96760.72;5076164;28;20051;-75
2021/07/08 03:56:49;;;;;;;2.08;0.70;;;;;;;15.88;93.56;96750.16;5075867;28;20048;-75
2021/07/08 03:59:15;;;;;;;0.80;0.70;;;;;;;15.89;93.47;96741.16;5076021;28;20357;-75
2021/07/08 04:01:41;;;;;;;2.00;1.00;;;;;;;15.90;93.41;96742.78;5076127;28;20099;-74
2021/07/08 04:04:08;;;;;;;2.58;1.15;;;;;;;15.90;93.47;96751.50;5075545;28;20495;-74
2021/07/08 04:06:34;;;;;;;1.52;0.90;;;;;;;15.92;93.49;96741.47;5075215;28;20508;-75
2021/07/08 04:09:00;;;;;;;3.55;1.00;;;;;;;15.92;93.45;96740.69;5075297;28;20033;-75
2021/07/08 04:11:27;;;;;;;1.35;1.08;;;;;;;15.91;93.25;96734.56;5074575;28;20041;-75
2021/07/08 04:13:53;;;;;;;1.50;1.10;;;;;;;15.93;93.51;96723.75;5075985;28;20044;-75
2021/07/08 04:16:19;;;;;;;0.70;0.60;;;;;;;15.95;93.74;96719.00;5075712;28;20468;-75
2021/07/08 04:18:45;;;;;;;1.33;0.88;;;;;;;15.95;93.62;96705.78;5074501;28;20037;-75
2021/07/08 04:21:11;;;;;;;0.85;0.80;;;;;;;15.96;93.65;96700.25;5075465;28;20048;-74
2021/07/08 04:23:37;;;;;;;0.80;0.80;;;;;;;15.98;93.56;96700.00;5075688;28;20028;-74
2021/07/08 04:26:04;;;;;;;0.95;0.70;;;;;;;15.99;93.57;96704.25;5075832;28;20036;-74
2021/07/08 04:28:30;;;;;;;0.88;0.80;;;;;;;16.00;93.56;96701.38;5075743;28;20032;-74
2021/07/08 04:30:56;;;;;;;0.80;0.80;;;;;;;16.01;93.53;96699.53;5075438;28;20032;-74
2021/07/08 04:33:22;;;;;;;4.72;1.40;;;;;;;16.01;93.56;96696.88;5075419;28;20036;-74
2021/07/08 04:35:49;;;;;;;1.38;0.70;;;;;;;16.01;93.56;96695.03;5074841;28;20051;-74
2021/07/08 04:38:16;;;;;;;1.83;0.70;;;;;;;16.02;93.61;96690.53;5074724;28;20064;-74
2021/07/08 04:40:44;;;;;;;2.17;0.82;;;;;;;16.02;93.69;96687.88;5075430;28;20377;-74
2021/07/08 04:43:12;;;;;;;1.02;0.60;;;;;;;16.03;93.53;96673.63;5075321;28;20028;-75
2021/07/08 04:45:38;;;;;;;0.70;0.70;;;;;;;16.02;93.56;96664.88;5075105;28;20481;-74
2021/07/08 04:48:09;;;;;;;2.08;0.90;;;;;;;16.01;93.77;96654.56;5075165;28;20397;-74
2021/07/08 04:50:35;;;;;;;2.00;0.95;;;;;;;15.99;93.78;96646.84;5075095;28;20037;-74
2021/07/08 04:53:01;;;;;;;1.02;0.70;;;;;;;16.00;93.83;96653.75;5074491;28;20052;-74
2021/07/08 04:55:27;;;;;;;1.38;0.88;;;;;;;16.01;94.07;96673.84;5075116;28;20040;-73
2021/07/08 04:57:55;;;;;;;3.22;0.75;;;;;;;16.02;94.14;96698.47;5075190;28;20044;-73
2021/07/08 05:00:23;;;;;;;0.85;0.80;;;;;;;16.02;94.31;96719.63;5074291;28;20485;-74
2021/07/08 05:02:50;;;;;;;1.13;0.73;;;;;;;16.01;94.15;96734.69;5074985;28;20055;-74
2021/07/08 05:05:17;;;;;;;2.40;0.90;;;;;;;15.97;94.33;96741.53;5074549;28;20028;-74
2021/07/08 05:07:43;;;;;;;2.22;0.90;;;;;;;15.93;94.39;96743.06;5074779;28;20032;-74
2021/07/08 05:10:12;;;;;;;1.88;0.90;;;;;;;15.93;94.64;96745.69;5074867;28;20048;-74
2021/07/08 05:12:38;;;;;;;2.25;1.10;;;;;;;15.93;94.85;96742.25;5074895;28;20044;-74
2021/07/08 05:15:10;;;;;;;1.52;0.90;;;;;;;15.93;95.22;96740.41;5074485;28;20461;-74
2021/07/08 05:17:36;;;;;;;1.52;0.93;;;;;;;15.97;94.94;96746.03;5074592;28;20044;-74
2021/07/08 05:20:05;;;;;;;2.22;0.93;;;;;;;15.98;95.24;96737.84;5073590;28;20024;-74
2021/07/08 05:22:33;;;;;;;1.88;0.98;;;;;;;16.02;95.23;96746.06;5074096;28;20055;-74
2021/07/08 05:25:00;;;;;;;3.58;1.00;;;;;;;16.05;95.10;96747.44;5073947;28;20044;-74
2021/07/08 05:27:26;;;;;;;3.25;0.70;;;;;;;16.06;95.42;96752.47;5073968;28;20052;-74
2021/07/08 05:29:53;;;;;;;1.98;1.48;;;;;;;16.11;95.26;96754.41;5073708;28;20052;-74
2021/07/08 05:32:19;;;;;;;0.73;0.73;;;;;;;16.14;95.24;96765.28;5074411;28;20053;-74
2021/07/08 05:34:45;;;;;;;3.03;1.15;;;;;;;16.16;95.11;96770.34;5072646;28;20048;-74
2021/07/08 05:37:11;;;;;;;2.42;1.15;;;;;;;16.16;94.68;96796.81;5074418;28;20414;-74
2021/07/08 05:39:37;;;;;;;1.35;1.02;;;;;;;16.16;94.98;96812.69;5072802;28;20040;-74
2021/07/08 05:42:03;;;;;;;1.38;1.00;;;;;;;16.19;95.21;96828.06;5073392;28;20041;-74
2021/07/08 05:44:30;;;;;;;2.78;0.90;;;;;;;16.17;94.96;96832.81;5073548;28;20036;-74
2021/07/08 05:46:57;;;;;;;1.42;0.90;;;;;;;16.16;94.90;96829.34;5073730;28;20053;-74
2021/07/08 05:49:23;;;;;;;3.78;1.58;;;;;;;16.18;94.99;96826.47;5074159;28;20059;-74
2021/07/08 05:51:49;;;;;;;1.67;1.00;;;;;;;16.17;94.90;96833.59;5073394;28;20041;-74
2021/07/08 05:54:15;;;;;;;1.73;0.82;;;;;;;16.18;94.97;96837.03;5072314;28;20052;-73
2021/07/08 05:56:41;;;;;;;3.30;1.10;;;;;;;16.18;94.95;96837.03;5073186;28;20111;-74
2021/07/08 05:59:07;;;;;;;2.20;1.35;;;;;;;16.19;94.68;96828.06;5072498;28;20036;-74
2021/07/08 06:01:34;;;;;;;2.58;1.05;;;;;;;16.16;94.71;96826.69;5073661;28;20389;-74
2021/07/08 06:04:00;;;;;;;2.13;1.13;;;;;;;16.11;94.60;96815.25;5073311;28;20052;-74
2021/07/08 06:06:26;;;;;;;2.92;1.30;;;;;;;16.11;94.92;96825.84;5073848;28;20032;-74
2021/07/08 06:08:52;;;;;;;1.63;0.90;;;;;;;16.11;94.99;96823.19;5073411;28;20029;-74
2021/07/08 06:11:20;;;;;;;4.13;1.27;;;;;;;16.13;95.12;96824.56;5073625;28;20032;-75
2021/07/08 06:13:46;;;;;;;1.20;1.05;;;;;;;16.17;95.25;96830.16;5073468;28;20059;-74
2021/07/08 06:16:12;;;;;;;2.50;1.20;;;;;;;16.18;95.20;96829.09;5072699;28;20040;-75
2021/07/08 06:18:38;;;;;;;2.28;1.20;;;;;;;16.19;95.27;96826.22;5073004;28;20064;-73
2021/07/08 06:21:05;;;;;;;3.65;1.10;;;;;;;16.17;95.04;96817.72;5073547;28;20033;-73
2021/07/08 06:23:31;;;;;;;1.65;1.10;;;;;;;16.20;95.24;96813.78;5072829;28;20043;-72
2021/07/08 06:25:58;;;;;;;1.35;0.90;;;;;;;16.21;95.20;96807.44;5073390;28;20029;-72
2021/07/08 06:32:06;;;;;;;1.58;0.80;;;;;;;16.26;95.67;96812.81;5073355;28;20503;-71
2021/07/08 06:34:32;;;;;;;0.73;0.65;;;;;;;16.36;95.75;96815.59;5073187;28;20384;-71
2021/07/08 06:36:58;;;;;;;1.85;0.88;;;;;;;16.51;95.63;96819.47;5072717;28;20059;-71
2021/07/08 06:39:24;;;;;;;1.00;0.98;;;;;;;16.62;95.33;96835.22;5072417;28;20045;-73
2021/07/08 06:41:50;;;;;;;3.80;1.15;;;;;;;16.68;94.80;96844.03;5072773;28;20048;-72
2021/07/08 06:44:16;;;;;;;2.22;0.93;;;;;;;16.77;94.79;96837.25;5072975;28;20056;-72
2021/07/08 06:46:49;;;;;;;2.10;0.90;;;;;;;16.87;94.22;96830.50;5072854;28;20048;-73
2021/07/08 06:49:15;;;;;;;1.27;0.90;;;;;;;16.90;93.94;96832.66;5073174;28;20086;-73
2021/07/08 06:51:41;;;;;;;2.63;1.00;;;;;;;16.93;93.70;96837.47;5072838;28;20424;-73
2021/07/08 06:54:07;;;;;;;2.50;1.10;;;;;;;16.96;93.48;96823.72;5073267;28;20036;-73
2021/07/08 06:56:33;;;;;;;1.90;1.00;;;;;;;16.98;93.52;96829.56;5073241;28;20052;-72
2021/07/08 06:59:00;;;;;;;0.98;0.90;;;;;;;16.97;93.24;96828.78;5072923;28;20048;-72
2021/07/08 07:01:26;;;;;;;1.10;1.00;;;;;;;16.95;93.27;96828.22;5072973;28;20040;-72
2021/07/08 07:03:52;;;;;;;2.05;1.00;;;;;;;16.96;93.57;96821.84;5072948;28;20028;-73
2021/07/08 07:06:18;;;;;;;1.20;1.10;;;;;;;16.96;92.99;96821.84;5072962;28;20381;-71
2021/07/08 07:08:44;;;;;;;1.17;0.73;;;;;;;17.00;93.32;96820.31;5072975;28;20033;-72
2021/07/08 07:11:11;;;;;;;0.93;0.60;;;;;;;17.11;93.58;96809.81;5072489;28;20497;-72
2021/07/08 07:13:37;;;;;;;2.08;0.55;;;;;;;17.26;93.45;96809.97;5073058;28;20504;-72
2021/07/08 07:16:04;;;;;;;0.70;0.70;;;;;;;17.39;93.07;96811.41;5072717;28;20036;-73
2021/07/08 07:18:30;;;;;;;0.68;0.60;;;;;;;17.49;92.90;96814.16;5072612;28;20052;-73
2021/07/08 07:20:56;;;;;;;0.63;0.63;;;;;;;17.52;92.22;96808.34;5072131;28;20047;-73
2021/07/08 07:23:22;;;;;;;1.00;0.68;;;;;;;17.53;91.74;96815.22;5072822;28;20048;-73
2021/07/08 07:25:48;;;;;;;0.82;0.70;;;;;;;17.54;91.94;96813.38;5072814;28;20048;-73
2021/07/08 07:28:14;;;;;;;0.73;0.63;;;;;;;17.55;91.82;96812.31;5072871;28;20036;-73
2021/07/08 07:30:41;;;;;;;0.80;0.80;;;;;;;17.55;91.54;96807.03;5073063;28;20485;-73
2021/07/08 07:33:07;;;;;;;1.05;0.80;;;;;;;17.56;91.49;96817.38;5072521;28;20041;-73
2021/07/08 07:35:33;;;;;;;1.42;0.65;;;;;;;17.52;91.35;96821.59;5072065;28;20417;-73
2021/07/08 07:37:59;;;;;;;0.80;0.80;;;;;;;17.50;91.58;96815.75;5072855;28;20033;-73
2021/07/08 07:40:26;;;;;;;0.63;0.63;;;;;;;17.49;91.62;96813.34;5072624;28;20047;-73
2021/07/08 07:42:52;;;;;;;1.33;0.90;;;;;;;17.47;91.91;96802.19;5072527;28;20461;-73
2021/07/08 07:45:19;;;;;;;1.05;0.80;;;;;;;17.47;91.91;96797.69;5075892;28;20045;-73
2021/07/08 07:47:47;;;;;;;0.80;0.80;;;;;;;17.48;92.03;96804.59;5074759;28;20059;-74
2021/07/08 07:50:13;;;;;;;1.42;0.85;;;;;;;17.49;91.83;96819.47;5076238;28;20497;-74
2021/07/08 07:52:40;;;;;;;0.85;0.85;;;;;;;17.48;91.51;96815.19;5076497;28;20036;-73
2021/07/08 07:55:06;;;;;;;1.00;0.90;;;;;;;17.49;91.83;96810.69;5075032;28;20036;-74
2021/07/08 07:57:33;;;;;;;0.60;0.60;;;;;;;17.56;92.03;96809.44;5076447;28;20024;-73
2021/07/08 07:59:59;;;;;;;1.85;0.77;;;;;;;17.65;91.73;96813.19;5075555;28;20044;-74
2021/07/08 08:02:25;;;;;;;1.55;0.80;;;;;;;17.75;91.66;96814.34;5076008;28;20039;-74
2021/07/08 08:10:06;;;;;;;1.35;1.10;;;;;;;18.01;91.02;96810.03;5076015;28;20383;-74
2021/07/08 08:12:33;;;;;;;1.15;1.05;;;;;;;18.11;91.44;96806.63;5075879;28;20377;-73
2021/07/08 08:15:03;;;;;;;0.95;0.90;;;;;;;18.14;90.33;96812.25;5075734;28;20039;-74
2021/07/08 08:17:29;;;;;;;1.35;1.10;;;;;;;18.19;90.18;96817.56;5076011;28;20032;-74
2021/07/08 08:19:55;;;;;;;1.27;0.88;;;;;;;18.24;90.11;96804.31;5074927;28;20052;-74
2021/07/08 08:22:22;;;;;;;0.90;0.85;;;;;;;18.28;90.15;96807.25;5075068;28;20049;-74
2021/07/08 08:24:50;;;;;;;0.93;0.60;;;;;;;18.24;89.74;96809.63;5075780;28;20043;-72
2021/07/08 08:27:17;;;;;;;0.60;0.60;;;;;;;18.24;89.57;96806.16;5075580;28;20044;-73
2021/07/08 08:29:43;;;;;;;0.40;0.40;;;;;;;18.19;88.19;96808.81;5074973;28;20402;-72
2021/07/08 08:32:09;;;;;;;1.23;0.75;;;;;;;18.21;88.98;96804.84;5075435;28;20047;-74
2021/07/08 08:34:36;;;;;;;0.93;0.75;;;;;;;18.30;89.29;96813.09;5075385;28;20029;-74
2021/07/08 08:37:03;;;;;;;0.50;0.50;;;;;;;18.35;89.01;96822.94;5075452;28;20425;-74
2021/07/08 08:39:29;;;;;;;1.08;0.73;;;;;;;18.37;88.89;96826.97;5075304;28;20396;-74
2021/07/08 08:41:56;;;;;;;1.02;0.70;;;;;;;18.42;89.06;96820.88;5075097;28;20028;-74
2021/07/08 08:44:22;;;;;;;1.15;0.90;;;;;;;18.45;88.56;96817.69;5075371;28;20037;-73
2021/07/08 08:46:50;;;;;;;0.65;0.60;;;;;;;18.48;88.73;96827.81;5074570;28;20497;-74
2021/07/08 08:49:17;;;;;;;1.25;0.80;;;;;;;18.52;87.86;96830.72;5075160;28;20044;-73
2021/07/08 08:51:44;;;;;;;3.80;1.70;;;;;;;18.50;87.51;96822.22;5075290;28;20087;-74
2021/07/08 08:54:11;;;;;;;1.23;0.98;;;;;;;18.49;87.59;96839.22;5075083;28;20031;-74
2021/07/08 08:56:37;;;;;;;2.17;0.90;;;;;;;18.48;87.36;96838.44;5075476;28;20040;-74
2021/07/08 08:59:04;;;;;;;0.90;0.88;;;;;;;18.45;87.01;96842.38;5073911;28;20377;-74
2021/07/08 09:01:30;;;;;;;0.90;0.90;;;;;;;18.38;86.77;96849.00;5074421;28;20063;-74
2021/07/08 09:03:56;;;;;;;1.95;0.85;;;;;;;18.30;86.64;96855.59;5074657;28;20044;-74
2021/07/08 09:06:23;;;;;;;0.70;0.70;;;;;;;18.26;86.79;96854.50;5074397;28;20401;-74
2021/07/08 09:08:51;;;;;;;0.75;0.75;;;;;;;18.28;87.33;96862.22;5074279;28;20048;-74
2021/07/08 09:11:19;;;;;;;0.70;0.70;;;;;;;18.32;87.68;96864.09;5073276;28;20472;-74
2021/07/08 09:13:56;;;;;;;0.47;0.47;;;;;;;18.36;87.19;96864.38;5074155;28;20048;-74
2021/07/08 09:16:31;;;;;;;0.50;0.50;;;;;;;18.36;86.17;96867.84;5074009;28;20044;-75
2021/07/08 09:19:18;;;;;;;0.60;0.60;;;;;;;18.40;87.08;96868.13;5074580;28;20049;-74
2021/07/08 09:21:59;;;;;;;0.95;0.70;;;;;;;18.45;87.38;96870.81;5074697;28;20049;-74
2021/07/08 09:24:31;;;;;;;3.10;0.75;;;;;;;18.50;86.60;96870.84;5065457;28;20043;-74
2021/07/08 09:26:59;;;;;;;0.85;0.80;;;;;;;18.49;86.32;96866.56;5073121;28;20409;-74
2021/07/08 09:29:45;;;;;;;1.38;0.70;;;;;;;18.49;86.53;96853.28;5074574;28;20029;-74
2021/07/08 09:32:17;;;;;;;1.60;0.82;;;;;;;18.54;86.94;96852.50;5074653;28;20033;-74
2021/07/08 09:34:51;;;;;;;1.83;1.33;;;;;;;18.57;86.43;96858.13;5074276;28;20028;-74
2021/07/08 09:37:35;;;;;;;0.57;0.57;;;;;;;18.60;85.36;96860.25;5074512;28;20055;-74
2021/07/08 09:40:05;;;;;;;0.80;0.80;;;;;;;18.61;85.90;96851.22;5073621;28;20036;-74
2021/07/08 09:42:33;;;;;;;0.75;0.75;;;;;;;18.62;85.93;96852.81;5074115;28;20380;-74
2021/07/08 09:45:08;;;;;;;0.70;0.70;;;;;;;18.66;85.84;96847.78;5073819;28;20033;-74
2021/07/08 09:47:37;;;;;;;1.27;0.80;;;;;;;18.73;85.88;96844.88;5074183;28;20044;-73
2021/07/08 09:50:11;;;;;;;0.88;0.85;;;;;;;18.78;85.35;96850.25;5074249;28;20032;-74
2021/07/08 09:52:39;;;;;;;1.48;0.85;;;;;;;18.83;85.02;96858.25;5074073;28;20040;-75
2021/07/08 09:55:15;;;;;;;0.70;0.70;;;;;;;18.85;84.53;96848.16;5073545;28;20040;-74
2021/07/08 09:57:48;;;;;;;1.88;0.90;;;;;;;18.90;84.30;96837.56;5074410;28;20039;-73
2021/07/08 10:00:23;;;;;;;0.52;0.52;;;;;;;18.90;83.80;96842.06;5074250;28;20044;-73
2021/07/08 10:02:50;;;;;;;1.33;0.77;;;;;;;18.85;83.63;96837.53;5073828;28;20047;-74
2021/07/08 10:05:18;;;;;;;0.57;0.57;;;;;;;18.82;83.80;96833.53;5073462;28;20044;-74
2021/07/08 10:07:46;;;;;;;0.75;0.75;;;;;;;18.79;83.39;96828.75;5073195;28;20362;-74
2021/07/08 10:10:13;;;;;;;0.88;0.65;;;;;;;18.78;83.31;96828.97;5074180;28;20063;-74
2021/07/08 10:12:41;;;;;;;0.70;0.70;;;;;;;18.78;83.15;96821.00;5073612;28;20392;-75
2021/07/08 10:15:10;;;;;;;0.73;0.73;;;;;;;18.75;82.42;96813.53;5073585;28;20043;-74
2021/07/08 10:17:38;;;;;;;1.73;0.80;;;;;;;18.74;82.76;96811.97;5073050;28;20052;-73
2021/07/08 10:20:11;;;;;;;0.70;0.70;;;;;;;18.77;82.71;96817.56;5072798;28;20496;-74
2021/07/08 10:22:38;;;;;;;1.25;0.80;;;;;;;18.81;82.42;96809.88;5073721;28;20029;-74
2021/07/08 10:25:06;;;;;;;0.75;0.60;;;;;;;18.83;82.08;96811.19;5073586;28;20377;-73
2021/07/08 10:27:35;;;;;;;0.60;0.60;;;;;;;18.84;81.35;96815.47;5060578;28;20037;-73
2021/07/08 10:30:03;;;;;;;0.65;0.65;;;;;;;18.88;81.58;96825.56;5073407;28;20388;-74
2021/07/08 10:32:30;;;;;;;0.95;0.90;;;;;;;18.97;81.67;96824.81;5072763;28;20055;-74
2021/07/08 10:34:56;;;;;;;0.80;0.70;;;;;;;19.05;81.69;96824.28;5064193;28;20414;-73
2021/07/08 10:37:26;;;;;;;1.70;0.70;;;;;;;19.11;82.18;96835.75;5073335;28;20039;-74
2021/07/08 10:39:53;;;;;;;0.80;0.80;;;;;;;19.13;82.06;96832.81;5073307;28;20496;-74
2021/07/08 10:42:46;;;;;;;0.65;0.65;;;;;;;19.15;82.96;96833.34;5073366;28;20512;-74
2021/07/08 10:45:42;;;;;;;0.52;0.52;;;;;;;19.15;83.05;96828.03;5073612;28;20488;-74
2021/07/08 10:48:09;;;;;;;1.00;1.00;;;;;;;19.21;82.73;96833.13;5064992;28;20059;-74
2021/07/08 10:50:41;;;;;;;1.05;0.98;;;;;;;19.27;83.24;96840.00;5072625;28;20047;-74
2021/07/08 10:53:17;;;;;;;0.60;0.60;;;;;;;19.33;82.89;96838.16;5072786;28;20052;-75
2021/07/08 10:55:46;;;;;;;0.98;0.70;;;;;;;19.35;82.85;96846.69;5073368;28;20059;-74
2021/07/08 10:58:41;;;;;;;0.82;0.82;;;;;;;19.34;83.05;96833.63;5073457;28;20036;-73
2021/07/08 11:01:27;;;;;;;0.80;0.80;;;;;;;19.34;83.00;96833.63;5065194;28;20044;-73
2021/07/08 11:03:54;;;;;;;0.77;0.77;;;;;;;19.35;83.13;96832.59;5072931;28;20036;-73
2021/07/08 11:06:38;;;;;;;1.33;0.80;;;;;;;19.35;82.38;96843.22;5072860;28;20041;-74
2021/07/08 11:09:16;;;;;;;0.75;0.75;;;;;;;19.30;82.91;96844.03;5073075;28;20040;-74
2021/07/08 11:11:45;;;;;;;0.95;0.95;;;;;;;19.29;82.96;96841.63;5073156;28;20049;-73
2021/07/08 11:14:12;;;;;;;0.90;0.90;;;;;;;19.29;83.15;96833.66;5072382;28;20047;-74
2021/07/08 11:16:45;;;;;;;1.20;1.10;;;;;;;19.33;82.79;96827.53;5072785;28;20036;-74
2021/07/08 11:19:12;;;;;;;0.85;0.80;;;;;;;19.36;83.30;96824.34;5074105;28;20045;-74
2021/07/08 11:21:58;;;;;;;0.80;0.80;;;;;;;19.41;83.84;96821.69;5077225;28;20043;-73
2021/07/08 11:24:48;;;;;;;1.67;0.85;;;;;;;19.46;84.25;96828.88;5069134;28;20036;-74
2021/07/08 11:27:33;;;;;;;0.68;0.68;;;;;;;19.47;83.48;96833.13;5076746;28;20035;-74
2021/07/08 11:30:14;;;;;;;0.68;0.68;;;;;;;19.45;82.81;96827.28;5076185;28;20055;-73
2021/07/08 11:32:45;;;;;;;0.70;0.70;;;;;;;19.39;83.13;96831.78;5076579;28;20032;-74
2021/07/08 11:35:27;;;;;;;0.90;0.90;;;;;;;19.29;82.37;96837.09;5076849;28;20032;-74
2021/07/08 11:38:15;;;;;;;0.70;0.70;;;;;;;19.19;83.34;96831.75;5076872;28;20040;-74
2021/07/08 11:40:44;;;;;;;0.75;0.75;;;;;;;19.13;83.62;96822.16;5076608;28;20039;-74
2021/07/08 11:43:41;;;;;;;0.70;0.70;;;;;;;19.14;84.21;96819.25;5076392;28;20025;-74
2021/07/08 11:46:12;;;;;;;0.75;0.50;;;;;;;19.13;83.83;96815.03;5067813;28;20048;-74
2021/07/08 11:48:40;;;;;;;0.93;0.57;;;;;;;19.18;83.52;96809.69;5076355;28;20037;-74
2021/07/08 11:51:33;;;;;;;0.50;0.50;;;;;;;19.25;81.59;96804.13;5076028;28;20047;-73
2021/07/08 11:54:00;;;;;;;0.60;0.60;;;;;;;19.29;83.27;96807.06;5064871;28;20067;-74